Hopewell, Alabama
Current Conditions -  °F | °C
As of 5:53 PM on Wednesday 22 Oct 2014 (Local Time) from KBHM Reporting Station
Clear Clear  
Wind Chill: 63°   Ceiling: Unl
Heat Index: 63°   Visibility: 10mi
Dew Point: 41°   Wind: 7mph
Humidity: 45%   Direction: 20°NNE
Pressure: 30.13"   Gusts: NA
Location:  33.3984°N, 87.0224°W
Report Text: KBHM 222253Z 02006KT 10SM CLR 17/05 A3013 RMK AO2 SLP198 T01720050
Loading
Personal Weather Stations






























Interactive Weather Map
Tropical Storm Tracking
New forecast layout! Learn more

10-Day Weather Forecast

Advertisements
Track Severe Weather on mobile